sensor_id;sensor_type;location;lat;lon;timestamp;P1;durP1;ratioP1;P2;durP2;ratioP2
83807;SDS011;73824;40.292;17.998;2023-11-21T01:05:24;27.42;;;11.55;;
83807;SDS011;73824;40.292;17.998;2023-11-21T01:16:06;24.85;;;10.60;;
83807;SDS011;73824;40.292;17.998;2023-11-21T01:54:31;22.23;;;8.10;;
83807;SDS011;73824;40.292;17.998;2023-11-21T02:56:01;18.98;;;8.60;;
83807;SDS011;73824;40.292;17.998;2023-11-21T04:18:15;16.33;;;6.03;;
83807;SDS011;73824;40.292;17.998;2023-11-21T06:20:49;35.92;;;16.38;;
83807;SDS011;73824;40.292;17.998;2023-11-21T06:26:38;32.45;;;14.43;;
83807;SDS011;73824;40.292;17.998;2023-11-21T07:22:41;16.35;;;4.97;;
83807;SDS011;73824;40.292;17.998;2023-11-21T07:25:50;11.07;;;3.78;;
83807;SDS011;73824;40.292;17.998;2023-11-21T07:28:21;11.43;;;5.30;;
83807;SDS011;73824;40.292;17.998;2023-11-21T07:30:51;11.18;;;4.22;;
83807;SDS011;73824;40.292;17.998;2023-11-21T07:33:46;8.18;;;3.30;;
83807;SDS011;73824;40.292;17.998;2023-11-21T07:36:24;11.68;;;4.45;;
83807;SDS011;73824;40.292;17.998;2023-11-21T07:38:53;14.40;;;5.70;;
83807;SDS011;73824;40.292;17.998;2023-11-21T07:41:22;11.63;;;4.22;;
83807;SDS011;73824;40.292;17.998;2023-11-21T07:43:54;10.60;;;4.03;;
83807;SDS011;73824;40.292;17.998;2023-11-21T07:46:26;11.07;;;3.70;;
83807;SDS011;73824;40.292;17.998;2023-11-21T07:48:52;12.02;;;3.72;;
83807;SDS011;73824;40.292;17.998;2023-11-21T07:51:21;12.85;;;4.50;;
83807;SDS011;73824;40.292;17.998;2023-11-21T08:01:18;11.63;;;3.65;;
83807;SDS011;73824;40.292;17.998;2023-11-21T08:03:46;9.57;;;3.10;;
83807;SDS011;73824;40.292;17.998;2023-11-21T08:06:16;11.23;;;2.90;;
83807;SDS011;73824;40.292;17.998;2023-11-21T08:08:42;9.67;;;2.80;;
83807;SDS011;73824;40.292;17.998;2023-11-21T08:11:08;11.25;;;2.80;;
83807;SDS011;73824;40.292;17.998;2023-11-21T08:13:35;12.13;;;4.13;;
83807;SDS011;73824;40.292;17.998;2023-11-21T08:16:01;12.47;;;3.33;;
83807;SDS011;73824;40.292;17.998;2023-11-21T08:18:28;9.95;;;3.00;;
83807;SDS011;73824;40.292;17.998;2023-11-21T08:20:56;10.05;;;3.30;;
83807;SDS011;73824;40.292;17.998;2023-11-21T08:23:22;13.57;;;3.25;;
83807;SDS011;73824;40.292;17.998;2023-11-21T08:25:51;8.57;;;3.40;;
83807;SDS011;73824;40.292;17.998;2023-11-21T08:28:18;11.32;;;3.10;;
83807;SDS011;73824;40.292;17.998;2023-11-21T08:30:44;9.52;;;3.65;;
83807;SDS011;73824;40.292;17.998;2023-11-21T08:33:10;11.93;;;4.00;;
83807;SDS011;73824;40.292;17.998;2023-11-21T08:35:38;10.13;;;3.38;;
83807;SDS011;73824;40.292;17.998;2023-11-21T08:38:08;11.23;;;3.30;;
83807;SDS011;73824;40.292;17.998;2023-11-21T08:40:37;11.70;;;3.83;;
83807;SDS011;73824;40.292;17.998;2023-11-21T08:43:27;11.25;;;3.72;;
83807;SDS011;73824;40.292;17.998;2023-11-21T08:46:10;12.00;;;3.42;;
83807;SDS011;73824;40.292;17.998;2023-11-21T08:48:42;14.02;;;3.67;;
83807;SDS011;73824;40.292;17.998;2023-11-21T08:52:30;11.97;;;3.37;;
83807;SDS011;73824;40.292;17.998;2023-11-21T08:58:30;12.70;;;5.28;;
83807;SDS011;73824;40.292;17.998;2023-11-21T09:00:59;12.98;;;5.28;;
83807;SDS011;73824;40.292;17.998;2023-11-21T09:03:24;12.83;;;4.10;;
83807;SDS011;73824;40.292;17.998;2023-11-21T09:06:04;12.77;;;4.40;;
83807;SDS011;73824;40.292;17.998;2023-11-21T09:08:40;13.57;;;4.80;;
83807;SDS011;73824;40.292;17.998;2023-11-21T09:11:09;14.65;;;3.97;;
83807;SDS011;73824;40.292;17.998;2023-11-21T09:13:37;11.52;;;3.55;;
83807;SDS011;73824;40.292;17.998;2023-11-21T09:16:13;11.63;;;3.90;;
83807;SDS011;73824;40.292;17.998;2023-11-21T09:18:43;12.40;;;3.22;;
83807;SDS011;73824;40.292;17.998;2023-11-21T09:21:12;13.85;;;4.18;;
83807;SDS011;73824;40.292;17.998;2023-11-21T09:23:57;9.10;;;2.93;;
83807;SDS011;73824;40.292;17.998;2023-11-21T09:26:26;12.95;;;3.83;;
83807;SDS011;73824;40.292;17.998;2023-11-21T09:28:57;12.60;;;3.35;;
83807;SDS011;73824;40.292;17.998;2023-11-21T09:31:26;13.68;;;3.17;;
83807;SDS011;73824;40.292;17.998;2023-11-21T09:34:01;11.77;;;3.17;;
83807;SDS011;73824;40.292;17.998;2023-11-21T09:37:22;14.10;;;2.67;;
83807;SDS011;73824;40.292;17.998;2023-11-21T09:43:06;9.65;;;2.70;;
83807;SDS011;73824;40.292;17.998;2023-11-21T09:45:48;15.02;;;3.30;;
83807;SDS011;73824;40.292;17.998;2023-11-21T09:55:53;11.10;;;2.53;;
83807;SDS011;73824;40.292;17.998;2023-11-21T09:59:09;11.90;;;3.08;;
83807;SDS011;73824;40.292;17.998;2023-11-21T10:01:47;13.10;;;2.65;;
83807;SDS011;73824;40.292;17.998;2023-11-21T10:04:16;10.50;;;2.40;;
83807;SDS011;73824;40.292;17.998;2023-11-21T10:06:45;9.43;;;2.40;;
83807;SDS011;73824;40.292;17.998;2023-11-21T10:09:13;13.18;;;2.60;;
83807;SDS011;73824;40.292;17.998;2023-11-21T10:12:49;11.63;;;2.30;;
83807;SDS011;73824;40.292;17.998;2023-11-21T10:15:07;11.07;;;2.15;;
83807;SDS011;73824;40.292;17.998;2023-11-21T10:17:37;10.35;;;2.30;;
83807;SDS011;73824;40.292;17.998;2023-11-21T10:20:08;11.07;;;2.90;;
83807;SDS011;73824;40.292;17.998;2023-11-21T10:22:42;10.00;;;2.78;;
83807;SDS011;73824;40.292;17.998;2023-11-21T10:25:14;12.02;;;2.30;;
83807;SDS011;73824;40.292;17.998;2023-11-21T10:27:41;13.45;;;2.65;;
83807;SDS011;73824;40.292;17.998;2023-11-21T10:30:07;12.48;;;1.80;;
83807;SDS011;73824;40.292;17.998;2023-11-21T10:32:37;12.97;;;2.10;;
83807;SDS011;73824;40.292;17.998;2023-11-21T10:35:04;10.02;;;1.77;;
83807;SDS011;73824;40.292;17.998;2023-11-21T10:37:40;9.30;;;1.65;;
83807;SDS011;73824;40.292;17.998;2023-11-21T10:44:03;12.88;;;1.77;;
83807;SDS011;73824;40.292;17.998;2023-11-21T10:46:53;10.90;;;1.90;;
83807;SDS011;73824;40.292;17.998;2023-11-21T10:49:56;9.80;;;1.88;;
83807;SDS011;73824;40.292;17.998;2023-11-21T10:56:14;9.65;;;2.00;;
83807;SDS011;73824;40.292;17.998;2023-11-21T11:02:00;14.97;;;2.30;;
83807;SDS011;73824;40.292;17.998;2023-11-21T11:04:41;14.25;;;2.17;;
83807;SDS011;73824;40.292;17.998;2023-11-21T11:07:43;8.68;;;1.80;;
83807;SDS011;73824;40.292;17.998;2023-11-21T11:10:10;10.27;;;1.95;;
83807;SDS011;73824;40.292;17.998;2023-11-21T11:12:41;8.05;;;1.90;;
83807;SDS011;73824;40.292;17.998;2023-11-21T11:15:14;7.13;;;1.50;;
83807;SDS011;73824;40.292;17.998;2023-11-21T11:17:42;12.65;;;1.67;;
83807;SDS011;73824;40.292;17.998;2023-11-21T11:20:34;7.65;;;1.33;;
83807;SDS011;73824;40.292;17.998;2023-11-21T11:23:43;8.18;;;1.40;;
83807;SDS011;73824;40.292;17.998;2023-11-21T11:27:06;11.82;;;1.95;;
83807;SDS011;73824;40.292;17.998;2023-11-21T11:33:03;8.85;;;1.40;;
83807;SDS011;73824;40.292;17.998;2023-11-21T11:36:28;9.45;;;1.33;;
83807;SDS011;73824;40.292;17.998;2023-11-21T11:43:01;13.80;;;1.92;;
83807;SDS011;73824;40.292;17.998;2023-11-21T11:49:28;11.77;;;1.75;;
83807;SDS011;73824;40.292;17.998;2023-11-21T11:55:26;10.35;;;2.13;;
83807;SDS011;73824;40.292;17.998;2023-11-21T11:59:19;9.20;;;1.75;;
83807;SDS011;73824;40.292;17.998;2023-11-21T12:01:52;10.83;;;1.90;;
83807;SDS011;73824;40.292;17.998;2023-11-21T12:08:01;10.70;;;1.58;;
83807;SDS011;73824;40.292;17.998;2023-11-21T12:14:42;9.75;;;1.60;;
83807;SDS011;73824;40.292;17.998;2023-11-21T12:18:05;9.23;;;1.30;;
83807;SDS011;73824;40.292;17.998;2023-11-21T12:21:10;9.23;;;1.70;;
83807;SDS011;73824;40.292;17.998;2023-11-21T12:23:49;10.35;;;1.70;;
83807;SDS011;73824;40.292;17.998;2023-11-21T12:29:17;11.48;;;2.30;;
83807;SDS011;73824;40.292;17.998;2023-11-21T12:31:45;12.17;;;2.27;;
83807;SDS011;73824;40.292;17.998;2023-11-21T12:38:33;10.82;;;2.80;;
83807;SDS011;73824;40.292;17.998;2023-11-21T12:41:07;13.68;;;2.08;;
83807;SDS011;73824;40.292;17.998;2023-11-21T12:44:12;12.98;;;2.58;;
83807;SDS011;73824;40.292;17.998;2023-11-21T12:47:16;11.20;;;2.37;;
83807;SDS011;73824;40.292;17.998;2023-11-21T12:50:08;12.57;;;2.65;;
83807;SDS011;73824;40.292;17.998;2023-11-21T12:52:57;10.48;;;1.95;;
83807;SDS011;73824;40.292;17.998;2023-11-21T12:55:25;13.73;;;2.35;;
83807;SDS011;73824;40.292;17.998;2023-11-21T12:58:56;9.55;;;2.22;;
83807;SDS011;73824;40.292;17.998;2023-11-21T13:01:29;12.00;;;3.10;;
83807;SDS011;73824;40.292;17.998;2023-11-21T13:03:59;11.13;;;2.42;;
83807;SDS011;73824;40.292;17.998;2023-11-21T13:06:27;11.63;;;2.30;;
83807;SDS011;73824;40.292;17.998;2023-11-21T13:08:59;9.43;;;2.00;;
83807;SDS011;73824;40.292;17.998;2023-11-21T13:11:27;10.85;;;2.33;;
83807;SDS011;73824;40.292;17.998;2023-11-21T13:13:57;15.27;;;2.70;;
83807;SDS011;73824;40.292;17.998;2023-11-21T13:16:23;12.75;;;2.60;;
83807;SDS011;73824;40.292;17.998;2023-11-21T13:18:49;14.50;;;4.25;;
83807;SDS011;73824;40.292;17.998;2023-11-21T13:21:14;15.85;;;3.75;;
83807;SDS011;73824;40.292;17.998;2023-11-21T13:23:42;12.80;;;2.78;;
83807;SDS011;73824;40.292;17.998;2023-11-21T13:26:11;10.45;;;2.70;;
83807;SDS011;73824;40.292;17.998;2023-11-21T13:32:26;11.90;;;2.78;;
83807;SDS011;73824;40.292;17.998;2023-11-21T13:41:46;12.82;;;2.45;;
83807;SDS011;73824;40.292;17.998;2023-11-21T13:44:37;12.02;;;2.60;;
83807;SDS011;73824;40.292;17.998;2023-11-21T13:48:01;11.38;;;3.80;;
83807;SDS011;73824;40.292;17.998;2023-11-21T14:01:55;15.05;;;3.45;;
83807;SDS011;73824;40.292;17.998;2023-11-21T14:18:49;9.38;;;2.70;;
83807;SDS011;73824;40.292;17.998;2023-11-21T14:25:56;12.93;;;3.05;;
83807;SDS011;73824;40.292;17.998;2023-11-21T14:28:32;21.50;;;3.00;;
83807;SDS011;73824;40.292;17.998;2023-11-21T14:34:21;11.40;;;2.75;;
83807;SDS011;73824;40.292;17.998;2023-11-21T14:37:10;9.13;;;2.80;;
83807;SDS011;73824;40.292;17.998;2023-11-21T14:39:53;13.75;;;2.47;;
83807;SDS011;73824;40.292;17.998;2023-11-21T14:56:30;13.57;;;3.90;;
83807;SDS011;73824;40.292;17.998;2023-11-21T15:02:59;14.52;;;4.80;;
83807;SDS011;73824;40.292;17.998;2023-11-21T15:06:06;12.05;;;5.10;;
83807;SDS011;73824;40.292;17.998;2023-11-21T15:08:52;16.15;;;5.72;;
83807;SDS011;73824;40.292;17.998;2023-11-21T15:11:43;16.52;;;5.82;;
83807;SDS011;73824;40.292;17.998;2023-11-21T15:14:26;15.70;;;6.05;;
83807;SDS011;73824;40.292;17.998;2023-11-21T15:37:24;13.30;;;4.63;;
83807;SDS011;73824;40.292;17.998;2023-11-21T15:40:33;22.55;;;7.95;;
83807;SDS011;73824;40.292;17.998;2023-11-21T15:43:15;13.88;;;5.35;;
83807;SDS011;73824;40.292;17.998;2023-11-21T15:45:53;16.73;;;7.13;;
83807;SDS011;73824;40.292;17.998;2023-11-21T15:48:34;27.63;;;11.45;;
83807;SDS011;73824;40.292;17.998;2023-11-21T15:51:24;35.50;;;15.57;;
83807;SDS011;73824;40.292;17.998;2023-11-21T15:58:08;25.67;;;11.35;;
83807;SDS011;73824;40.292;17.998;2023-11-21T16:00:49;19.27;;;8.80;;
83807;SDS011;73824;40.292;17.998;2023-11-21T16:03:23;19.15;;;8.43;;
83807;SDS011;73824;40.292;17.998;2023-11-21T16:06:32;18.58;;;7.93;;
83807;SDS011;73824;40.292;17.998;2023-11-21T16:09:27;18.17;;;9.77;;
83807;SDS011;73824;40.292;17.998;2023-11-21T16:12:12;25.60;;;9.20;;
83807;SDS011;73824;40.292;17.998;2023-11-21T16:14:52;18.02;;;7.20;;
83807;SDS011;73824;40.292;17.998;2023-11-21T16:17:32;17.80;;;8.38;;
83807;SDS011;73824;40.292;17.998;2023-11-21T16:20:13;20.55;;;9.93;;
83807;SDS011;73824;40.292;17.998;2023-11-21T16:23:09;23.67;;;10.55;;
83807;SDS011;73824;40.292;17.998;2023-11-21T16:25:55;24.80;;;10.73;;
83807;SDS011;73824;40.292;17.998;2023-11-21T16:28:54;27.58;;;9.93;;
83807;SDS011;73824;40.292;17.998;2023-11-21T16:32:07;24.23;;;10.38;;
83807;SDS011;73824;40.292;17.998;2023-11-21T16:34:37;27.23;;;11.85;;
83807;SDS011;73824;40.292;17.998;2023-11-21T16:38:16;27.58;;;13.50;;
83807;SDS011;73824;40.292;17.998;2023-11-21T16:41:46;24.17;;;11.68;;
83807;SDS011;73824;40.292;17.998;2023-11-21T16:44:43;29.35;;;16.48;;
83807;SDS011;73824;40.292;17.998;2023-11-21T16:50:31;22.63;;;9.82;;
83807;SDS011;73824;40.292;17.998;2023-11-21T16:53:05;24.38;;;12.10;;
83807;SDS011;73824;40.292;17.998;2023-11-21T16:56:10;24.75;;;11.43;;
83807;SDS011;73824;40.292;17.998;2023-11-21T16:59:13;20.30;;;8.38;;
83807;SDS011;73824;40.292;17.998;2023-11-21T17:02:30;25.70;;;11.13;;
83807;SDS011;73824;40.292;17.998;2023-11-21T17:20:41;30.10;;;13.70;;
83807;SDS011;73824;40.292;17.998;2023-11-21T17:23:16;16.73;;;6.20;;
83807;SDS011;73824;40.292;17.998;2023-11-21T17:26:03;22.08;;;6.97;;
83807;SDS011;73824;40.292;17.998;2023-11-21T17:49:57;17.92;;;5.57;;
83807;SDS011;73824;40.292;17.998;2023-11-21T18:03:32;22.02;;;4.28;;
83807;SDS011;73824;40.292;17.998;2023-11-21T18:06:26;17.55;;;4.00;;
83807;SDS011;73824;40.292;17.998;2023-11-21T18:47:37;16.83;;;3.58;;
83807;SDS011;73824;40.292;17.998;2023-11-21T18:53:44;19.60;;;3.72;;
83807;SDS011;73824;40.292;17.998;2023-11-21T18:56:21;14.38;;;3.33;;
83807;SDS011;73824;40.292;17.998;2023-11-21T18:59:03;15.57;;;3.85;;
83807;SDS011;73824;40.292;17.998;2023-11-21T19:05:49;17.95;;;4.07;;
83807;SDS011;73824;40.292;17.998;2023-11-21T19:09:09;13.70;;;3.90;;
83807;SDS011;73824;40.292;17.998;2023-11-21T19:15:39;26.50;;;5.05;;
83807;SDS011;73824;40.292;17.998;2023-11-21T19:18:43;16.80;;;4.25;;
83807;SDS011;73824;40.292;17.998;2023-11-21T19:42:11;22.38;;;4.70;;
83807;SDS011;73824;40.292;17.998;2023-11-21T19:52:19;18.50;;;4.60;;
83807;SDS011;73824;40.292;17.998;2023-11-21T20:26:51;23.35;;;5.18;;
83807;SDS011;73824;40.292;17.998;2023-11-21T20:40:19;17.58;;;4.30;;
83807;SDS011;73824;40.292;17.998;2023-11-21T21:14:49;18.58;;;3.35;;
83807;SDS011;73824;40.292;17.998;2023-11-21T21:52:19;14.32;;;3.45;;
83807;SDS011;73824;40.292;17.998;2023-11-21T23:11:38;15.70;;;3.17;;
83807;SDS011;73824;40.292;17.998;2023-11-21T23:36:23;14.82;;;2.58;;
83807;SDS011;73824;40.292;17.998;2023-11-21T23:38:58;17.77;;;2.80;;
83807;SDS011;73824;40.292;17.998;2023-11-21T23:44:39;20.80;;;3.07;;
83807;SDS011;73824;40.292;17.998;2023-11-21T23:47:44;14.68;;;2.75;;
83807;SDS011;73824;40.292;17.998;2023-11-21T23:50:15;22.80;;;3.00;;
83807;SDS011;73824;40.292;17.998;2023-11-21T23:52:59;16.30;;;3.38;;
83807;SDS011;73824;40.292;17.998;2023-11-21T23:55:41;16.63;;;2.90;;
83807;SDS011;73824;40.292;17.998;2023-11-21T23:58:07;18.57;;;3.20;;
